createdAt,value
2017-04-12T00:01:19.958Z,4.80
2017-04-12T00:02:23.087Z,4.80
2017-04-12T00:03:26.947Z,4.80
2017-04-12T00:04:30.487Z,4.80
2017-04-12T00:05:30.687Z,4.90
2017-04-12T00:06:31.250Z,4.80
2017-04-12T00:07:31.497Z,4.80
2017-04-12T00:08:32.149Z,4.90
2017-04-12T00:09:36.681Z,4.90
2017-04-12T00:11:53.950Z,4.90
2017-04-12T00:12:54.364Z,4.90
2017-04-12T00:13:56.596Z,5.00
2017-04-12T00:14:57.281Z,4.90
2017-04-12T00:16:05.096Z,4.90
2017-04-12T00:17:05.336Z,4.90
2017-04-12T00:18:06.445Z,5.00
2017-04-12T00:19:06.708Z,5.00
2017-04-12T00:20:07.439Z,4.90
2017-04-12T00:21:10.531Z,4.90
2017-04-12T00:22:10.614Z,4.90
2017-04-12T00:23:11.441Z,5.00
2017-04-12T00:24:11.561Z,4.90
2017-04-12T00:25:13.157Z,4.90
2017-04-12T00:26:13.198Z,4.90
2017-04-12T00:27:14.713Z,4.90
2017-04-12T00:28:14.652Z,4.90
2017-04-12T00:29:14.621Z,4.90
2017-04-12T00:30:14.862Z,4.90
2017-04-12T00:31:14.978Z,5.00
2017-04-12T00:32:17.265Z,5.00
2017-04-12T00:33:18.416Z,5.10
2017-04-12T00:34:18.397Z,5.10
2017-04-12T00:35:19.667Z,5.10
2017-04-12T00:36:19.756Z,5.20
2017-04-12T00:37:20.236Z,5.30
2017-04-12T00:38:20.356Z,5.30
2017-04-12T00:39:20.270Z,5.30
2017-04-12T00:40:20.933Z,5.40
2017-04-12T00:41:21.266Z,5.40
2017-04-12T00:42:22.334Z,5.50
2017-04-12T00:43:23.330Z,5.60
2017-04-12T00:44:23.456Z,5.60
2017-04-12T00:45:24.324Z,5.60
2017-04-12T00:46:24.367Z,5.60
2017-04-12T00:47:24.381Z,5.60
2017-04-12T00:48:24.407Z,5.50
2017-04-12T00:49:24.392Z,5.50
2017-04-12T00:50:24.566Z,5.40
2017-04-12T00:51:24.885Z,5.40
2017-04-12T00:52:25.633Z,5.30
2017-04-12T00:53:25.777Z,5.40
2017-04-12T00:54:27.049Z,5.30
2017-04-12T00:55:28.067Z,5.40
2017-04-12T00:56:28.143Z,5.40
2017-04-12T00:57:28.127Z,5.40
2017-04-12T00:58:28.331Z,5.40
2017-04-12T00:59:28.575Z,5.40
2017-04-12T01:00:30.982Z,5.40
2017-04-12T01:01:31.726Z,5.40
2017-04-12T01:02:31.707Z,5.50
2017-04-12T01:03:31.785Z,5.60
2017-04-12T01:04:32.530Z,5.50
2017-04-12T01:05:33.210Z,5.50
2017-04-12T01:06:33.372Z,5.50
2017-04-12T01:07:34.400Z,5.50
2017-04-12T01:08:35.090Z,5.50
2017-04-12T01:09:35.785Z,5.40
2017-04-12T01:10:35.835Z,5.50
2017-04-12T01:11:35.889Z,5.50
2017-04-12T01:12:37.428Z,5.50
2017-04-12T01:13:38.202Z,5.50
2017-04-12T01:14:40.708Z,5.70
2017-04-12T01:15:40.794Z,5.80
2017-04-12T01:16:41.113Z,5.80
2017-04-12T01:17:41.219Z,5.90
2017-04-12T01:18:49.311Z,5.90
2017-04-12T01:19:51.096Z,5.90
2017-04-12T01:20:51.243Z,5.90
2017-04-12T01:21:51.287Z,6.00
2017-04-12T01:22:51.218Z,6.00
2017-04-12T01:23:52.151Z,6.10
2017-04-12T01:24:52.228Z,6.00
2017-04-12T01:25:52.169Z,6.00
2017-04-12T01:26:52.192Z,6.00
2017-04-12T01:27:52.124Z,6.10
2017-04-12T01:28:53.564Z,6.20
2017-04-12T01:29:54.285Z,6.20
2017-04-12T01:30:54.315Z,6.20
2017-04-12T01:31:54.331Z,6.10
2017-04-12T01:32:54.230Z,6.20
2017-04-12T01:33:55.090Z,6.20
2017-04-12T01:34:55.124Z,6.20
2017-04-12T01:35:55.119Z,6.30
2017-04-12T01:36:55.213Z,6.30
2017-04-12T01:37:56.202Z,6.30
2017-04-12T01:38:56.133Z,6.40
2017-04-12T01:39:56.101Z,6.40
2017-04-12T01:40:56.769Z,6.30
2017-04-12T01:41:56.823Z,6.30
2017-04-12T01:42:56.750Z,6.30
2017-04-12T01:43:57.509Z,6.50
2017-04-12T01:44:57.536Z,6.60
2017-04-12T01:45:58.395Z,6.60
2017-04-12T01:46:58.373Z,6.50
2017-04-12T01:47:59.999Z,6.60
2017-04-12T01:48:59.919Z,6.60
2017-04-12T01:49:59.794Z,6.50
2017-04-12T01:51:00.195Z,6.60
2017-04-12T01:52:00.229Z,6.60
2017-04-12T01:53:00.123Z,6.60
2017-04-12T01:54:00.001Z,6.60
2017-04-12T01:54:59.865Z,6.60
2017-04-12T01:56:00.697Z,6.60
2017-04-12T01:57:00.709Z,6.60
2017-04-12T01:58:00.652Z,6.70
2017-04-12T01:59:00.591Z,6.70
2017-04-12T02:00:00.526Z,6.70
2017-04-12T02:01:00.562Z,6.80
2017-04-12T02:02:00.556Z,6.80
2017-04-12T02:03:02.229Z,6.80
2017-04-12T02:04:03.035Z,6.80
2017-04-12T02:05:03.014Z,6.70
2017-04-12T02:06:03.056Z,6.70
2017-04-12T02:07:03.180Z,6.70
2017-04-12T02:08:03.916Z,6.70
2017-04-12T02:09:04.049Z,6.70
2017-04-12T02:10:04.119Z,6.70
2017-04-12T02:11:04.100Z,6.70
2017-04-12T02:12:03.984Z,6.70
2017-04-12T02:13:04.109Z,6.80
2017-04-12T02:14:04.113Z,6.70
2017-04-12T02:15:04.068Z,6.70
2017-04-12T02:16:04.925Z,6.70
2017-04-12T02:17:04.920Z,6.60
2017-04-12T02:18:05.620Z,6.60
2017-04-12T02:19:05.630Z,6.60
2017-04-12T02:20:05.673Z,6.60
2017-04-12T02:21:06.734Z,6.60
2017-04-12T02:22:06.813Z,6.60
2017-04-12T02:23:06.798Z,6.60
2017-04-12T02:24:06.898Z,6.60
2017-04-12T02:25:06.795Z,6.60
2017-04-12T02:26:08.430Z,6.50
2017-04-12T02:27:08.423Z,6.50
2017-04-12T02:28:08.369Z,6.60
2017-04-12T02:29:08.297Z,6.60
2017-04-12T02:30:08.440Z,6.60
2017-04-12T02:31:08.800Z,6.60
2017-04-12T02:32:09.496Z,6.60
2017-04-12T02:33:09.467Z,6.60
2017-04-12T02:34:09.445Z,6.60
2017-04-12T02:35:10.737Z,6.50
2017-04-12T02:36:10.677Z,6.50
2017-04-12T02:37:11.091Z,6.50
2017-04-12T02:38:11.135Z,6.50
2017-04-12T02:39:11.138Z,6.50
2017-04-12T02:40:11.639Z,6.40
2017-04-12T02:41:12.262Z,6.40
2017-04-12T02:42:13.846Z,6.40
2017-04-12T02:43:13.816Z,6.40
2017-04-12T02:44:13.752Z,6.50
2017-04-12T02:45:13.697Z,6.40
2017-04-12T02:46:13.618Z,6.40
2017-04-12T02:47:13.874Z,6.50
2017-04-12T02:48:13.845Z,6.50
2017-04-12T02:49:15.577Z,6.50
2017-04-12T02:50:15.626Z,6.60
2017-04-12T02:51:16.267Z,6.50
2017-04-12T02:52:16.233Z,6.60
2017-04-12T02:53:16.184Z,6.60
2017-04-12T02:54:16.985Z,6.60
2017-04-12T02:55:16.894Z,6.60
2017-04-12T02:56:17.045Z,6.60
2017-04-12T02:57:17.031Z,6.50
2017-04-12T02:58:17.009Z,6.50
2017-04-12T02:59:17.153Z,6.50
2017-04-12T03:00:18.041Z,6.50
2017-04-12T03:01:18.012Z,6.50
2017-04-12T03:02:18.052Z,6.50
2017-04-12T03:03:17.968Z,6.50
2017-04-12T03:04:17.947Z,6.60
2017-04-12T03:05:17.912Z,6.60
2017-04-12T03:06:17.804Z,6.70
2017-04-12T03:07:17.856Z,6.70
2017-04-12T03:08:19.005Z,6.60
2017-04-12T03:09:18.948Z,6.70
2017-04-12T03:10:21.000Z,6.60
2017-04-12T03:11:21.589Z,6.60
2017-04-12T03:12:23.139Z,6.60
2017-04-12T03:13:27.135Z,6.60
2017-04-12T03:14:27.788Z,6.60
2017-04-12T03:15:27.794Z,6.70
2017-04-12T03:16:27.725Z,6.70
2017-04-12T03:17:27.722Z,6.70
2017-04-12T03:18:27.835Z,6.70
2017-04-12T03:19:27.720Z,6.70
2017-04-12T03:20:27.648Z,6.70
2017-04-12T03:21:27.600Z,6.70
2017-04-12T03:22:28.945Z,6.60
2017-04-12T03:23:29.056Z,6.60
2017-04-12T03:24:29.195Z,6.70
2017-04-12T03:25:29.818Z,6.70
2017-04-12T03:26:29.802Z,6.70
2017-04-12T03:27:29.758Z,6.70
2017-04-12T03:28:29.675Z,6.70
2017-04-12T03:29:29.695Z,6.70
2017-04-12T03:30:29.663Z,6.70
2017-04-12T03:31:29.718Z,6.70
2017-04-12T03:32:30.433Z,6.70
2017-04-12T03:33:30.377Z,6.80
2017-04-12T03:34:30.302Z,6.90
2017-04-12T03:35:30.219Z,6.90
2017-04-12T03:36:30.088Z,6.90
2017-04-12T03:37:30.048Z,6.90
2017-04-12T03:38:29.913Z,7.00
2017-04-12T03:39:29.774Z,7.00
2017-04-12T03:40:29.577Z,7.00
2017-04-12T03:41:29.411Z,7.10
2017-04-12T03:42:29.266Z,7.20
2017-04-12T03:43:29.111Z,7.20
2017-04-12T03:44:29.034Z,7.20
2017-04-12T03:45:28.898Z,7.20
2017-04-12T03:46:28.726Z,7.30
2017-04-12T03:47:28.541Z,7.30
2017-04-12T03:48:28.316Z,7.30
2017-04-12T03:49:28.194Z,7.30
2017-04-12T03:50:28.063Z,7.30
2017-04-12T03:51:27.852Z,7.40
2017-04-12T03:52:27.678Z,7.40
2017-04-12T03:53:27.529Z,7.40
2017-04-12T03:54:27.437Z,7.40
2017-04-12T03:55:27.230Z,7.40
2017-04-12T03:56:27.194Z,7.40
2017-04-12T03:57:27.048Z,7.50
2017-04-12T03:58:26.915Z,7.50
2017-04-12T03:59:26.734Z,7.50
2017-04-12T04:00:26.520Z,7.60
2017-04-12T04:01:26.355Z,7.60
2017-04-12T04:02:26.271Z,7.60
2017-04-12T04:03:26.067Z,7.70
2017-04-12T04:04:25.929Z,7.70
2017-04-12T04:05:25.742Z,7.70
2017-04-12T04:06:25.561Z,7.70
2017-04-12T04:07:25.363Z,7.70
2017-04-12T04:08:25.207Z,7.70
2017-04-12T04:09:25.024Z,7.70
2017-04-12T04:10:24.932Z,7.70
2017-04-12T04:11:24.944Z,7.70
2017-04-12T04:12:24.853Z,7.70
2017-04-12T04:13:24.698Z,7.70
2017-04-12T04:14:24.610Z,7.70
2017-04-12T04:15:24.478Z,7.70
2017-04-12T04:16:24.296Z,7.70
2017-04-12T04:17:24.150Z,7.80
2017-04-12T04:18:23.937Z,7.80
2017-04-12T04:19:23.768Z,7.90
2017-04-12T04:20:23.590Z,7.90
2017-04-12T04:21:23.433Z,7.90
2017-04-12T04:22:23.204Z,7.80
2017-04-12T04:23:22.999Z,7.90
2017-04-12T04:24:22.864Z,7.90
2017-04-12T04:25:22.757Z,7.90
2017-04-12T04:26:23.342Z,7.80
2017-04-12T04:27:23.693Z,7.80
2017-04-12T04:28:23.484Z,7.80
2017-04-12T04:29:23.354Z,7.80
2017-04-12T04:30:23.200Z,7.80
2017-04-12T04:31:23.006Z,7.90
2017-04-12T04:32:22.856Z,7.90
2017-04-12T04:33:22.744Z,7.90
2017-04-12T04:34:22.529Z,8.00
2017-04-12T04:35:22.316Z,8.00
2017-04-12T04:36:22.210Z,8.00
2017-04-12T04:37:22.838Z,7.90
2017-04-12T04:38:22.716Z,7.90
2017-04-12T04:39:25.355Z,8.00
2017-04-12T04:40:25.240Z,8.00
2017-04-12T04:41:25.087Z,8.00
2017-04-12T04:42:24.897Z,8.00
2017-04-12T04:43:24.823Z,8.00
2017-04-12T04:44:24.635Z,8.00
2017-04-12T04:45:24.490Z,8.10
2017-04-12T04:46:24.323Z,8.00
2017-04-12T04:47:24.141Z,8.00
2017-04-12T04:48:24.479Z,7.90
2017-04-12T04:49:24.304Z,7.90
2017-04-12T04:50:24.112Z,7.90
2017-04-12T04:51:24.829Z,7.80
2017-04-12T04:52:24.718Z,7.80
2017-04-12T04:53:24.602Z,7.90
2017-04-12T04:54:24.490Z,7.80
2017-04-12T04:55:24.364Z,7.80
2017-04-12T04:56:24.271Z,7.80
2017-04-12T04:57:24.097Z,7.80
2017-04-12T04:58:24.062Z,7.70
2017-04-12T04:59:23.902Z,7.70
2017-04-12T05:00:23.752Z,7.70
2017-04-12T05:01:23.559Z,7.70
2017-04-12T05:02:23.388Z,7.70
2017-04-12T05:03:23.299Z,7.70
2017-04-12T05:04:23.510Z,7.80
2017-04-12T05:05:23.343Z,7.80
2017-04-12T05:06:23.223Z,7.80
2017-04-12T05:07:23.024Z,7.80
2017-04-12T05:08:22.889Z,7.70
2017-04-12T05:09:22.833Z,7.80
2017-04-12T05:10:22.698Z,7.70
2017-04-12T05:11:23.330Z,7.70
2017-04-12T05:12:23.225Z,7.70
2017-04-12T05:13:23.052Z,7.80
2017-04-12T05:14:22.903Z,7.80
2017-04-12T05:15:22.720Z,7.70
2017-04-12T05:16:22.555Z,7.80
2017-04-12T05:17:22.339Z,7.90
2017-04-12T05:18:22.151Z,7.90
2017-04-12T05:19:22.010Z,7.90
2017-04-12T05:20:21.914Z,7.90
2017-04-12T05:21:21.798Z,7.80
2017-04-12T05:22:21.654Z,7.90
2017-04-12T05:23:22.478Z,7.90
2017-04-12T05:24:22.337Z,7.90
2017-04-12T05:25:22.186Z,8.00
2017-04-12T05:26:22.066Z,8.00
2017-04-12T05:27:21.918Z,8.10
2017-04-12T05:28:21.839Z,8.10
2017-04-12T05:29:21.668Z,8.20
2017-04-12T05:30:22.642Z,8.20
2017-04-12T05:31:22.513Z,8.30
2017-04-12T05:32:22.822Z,8.30
2017-04-12T05:33:22.681Z,8.20
2017-04-12T05:34:22.550Z,8.10
2017-04-12T05:35:22.639Z,8.20
2017-04-12T05:36:22.953Z,8.20
2017-04-12T05:37:22.905Z,8.10
2017-04-12T05:38:22.756Z,8.20
2017-04-12T05:39:23.155Z,8.20
2017-04-12T05:40:22.999Z,8.30
2017-04-12T05:41:22.896Z,8.40
2017-04-12T05:42:22.767Z,8.40
2017-04-12T05:43:22.644Z,8.40
2017-04-12T05:44:22.499Z,8.50
2017-04-12T05:45:22.383Z,8.50
2017-04-12T05:46:22.210Z,8.40
2017-04-12T05:47:22.228Z,8.40
2017-04-12T05:48:22.026Z,8.40
2017-04-12T05:49:21.876Z,8.40
2017-04-12T05:50:21.719Z,8.30
2017-04-12T05:51:21.508Z,8.30
2017-04-12T05:52:21.447Z,8.20
2017-04-12T05:53:21.263Z,8.20
2017-04-12T05:54:21.104Z,8.20
2017-04-12T05:55:20.961Z,8.20
2017-04-12T05:56:20.843Z,8.20
2017-04-12T05:57:20.648Z,8.20
2017-04-12T05:58:20.587Z,8.20
2017-04-12T05:59:20.605Z,8.10
2017-04-12T06:00:22.064Z,8.10
2017-04-12T06:01:21.996Z,8.10
2017-04-12T06:02:21.883Z,8.10
2017-04-12T06:03:21.917Z,8.10
2017-04-12T06:04:21.773Z,8.10
2017-04-12T06:05:21.680Z,8.10
2017-04-12T06:06:21.701Z,8.20
2017-04-12T06:07:21.581Z,8.10
2017-04-12T06:08:21.632Z,8.00
2017-04-12T06:09:21.512Z,8.00
2017-04-12T06:10:21.958Z,8.00
2017-04-12T06:12:21.873Z,8.10
2017-04-12T06:13:22.334Z,8.10
2017-04-12T06:14:22.197Z,8.10
2017-04-12T06:15:22.853Z,8.20
2017-04-12T06:16:22.748Z,8.20
2017-04-12T06:17:22.589Z,8.20
2017-04-12T06:18:23.389Z,8.30
2017-04-12T06:19:23.902Z,8.30
2017-04-12T06:20:23.800Z,8.30
2017-04-12T06:21:24.464Z,8.20
2017-04-12T06:22:24.697Z,8.10
2017-04-12T06:23:24.686Z,8.10
2017-04-12T06:24:24.578Z,8.20
2017-04-12T06:25:24.421Z,8.20
2017-04-12T06:26:24.522Z,8.30
2017-04-12T06:27:24.419Z,8.30
2017-04-12T06:28:25.404Z,8.30
2017-04-12T06:29:25.283Z,8.30
2017-04-12T06:30:25.205Z,8.40
2017-04-12T06:31:25.131Z,8.50
2017-04-12T06:32:24.969Z,8.50
2017-04-12T06:33:24.859Z,8.50
2017-04-12T06:34:24.786Z,8.40
2017-04-12T06:35:24.647Z,8.40
2017-04-12T06:36:24.525Z,8.40
2017-04-12T06:37:24.408Z,8.40
2017-04-12T06:38:24.364Z,8.50
2017-04-12T06:39:24.303Z,8.50
2017-04-12T06:40:24.169Z,8.50
2017-04-12T06:41:24.046Z,8.60
2017-04-12T06:42:23.913Z,8.60
2017-04-12T06:43:24.511Z,8.70
2017-04-12T06:44:24.478Z,8.60
2017-04-12T06:45:25.319Z,8.70
2017-04-12T06:46:25.269Z,8.70
2017-04-12T06:47:25.799Z,8.70
2017-04-12T06:48:25.615Z,8.80
2017-04-12T06:49:25.569Z,8.90
2017-04-12T06:50:25.385Z,8.90
2017-04-12T06:51:25.274Z,8.90
2017-04-12T06:52:25.120Z,8.80
2017-04-12T06:53:25.457Z,8.80
2017-04-12T06:54:25.346Z,8.80
2017-04-12T06:55:26.865Z,8.70
2017-04-12T06:56:26.740Z,8.70
2017-04-12T06:57:26.624Z,8.70
2017-04-12T06:58:26.512Z,8.70
2017-04-12T06:59:26.406Z,8.70
2017-04-12T07:00:26.398Z,8.70
2017-04-12T07:01:26.349Z,8.70
2017-04-12T07:02:26.182Z,8.70
2017-04-12T07:03:26.155Z,8.70
2017-04-12T07:04:26.166Z,8.80
2017-04-12T07:05:26.578Z,8.80
2017-04-12T07:06:26.456Z,8.80
2017-04-12T07:07:26.297Z,8.80
2017-04-12T07:08:26.133Z,8.80
2017-04-12T07:09:26.314Z,8.80
2017-04-12T07:10:26.168Z,8.80
2017-04-12T07:11:26.076Z,8.80
2017-04-12T07:12:25.938Z,8.70
2017-04-12T07:13:26.651Z,8.70
2017-04-12T07:14:27.636Z,8.70
2017-04-12T07:15:27.482Z,8.70
2017-04-12T07:16:28.078Z,8.70
2017-04-12T07:17:27.935Z,8.80
2017-04-12T07:18:27.761Z,8.80
2017-04-12T07:19:27.639Z,8.80
2017-04-12T07:20:27.449Z,8.80
2017-04-12T07:21:28.077Z,8.90
2017-04-12T07:22:28.106Z,8.90
2017-04-12T07:23:27.985Z,8.90
2017-04-12T07:24:27.905Z,8.90
2017-04-12T07:25:28.437Z,8.90
2017-04-12T07:26:28.235Z,8.80
2017-04-12T07:27:28.131Z,8.80
2017-04-12T07:28:27.989Z,8.70
2017-04-12T07:29:27.903Z,8.60
2017-04-12T07:30:27.745Z,8.60
2017-04-12T07:31:27.579Z,8.60
2017-04-12T07:32:27.541Z,8.60
2017-04-12T07:33:27.423Z,8.60
2017-04-12T07:34:27.236Z,8.50
2017-04-12T07:35:27.209Z,8.50
2017-04-12T07:36:27.015Z,8.60
2017-04-12T07:37:26.896Z,8.60
2017-04-12T07:38:27.612Z,8.60
2017-04-12T07:39:27.421Z,8.70
2017-04-12T07:40:28.182Z,8.70
2017-04-12T07:41:29.219Z,8.80
2017-04-12T07:42:29.453Z,8.90
2017-04-12T07:43:29.303Z,9.00
2017-04-12T07:44:29.148Z,9.00
2017-04-12T07:45:29.114Z,9.00
2017-04-12T07:46:28.961Z,9.00
2017-04-12T07:47:28.805Z,9.00
2017-04-12T07:48:28.596Z,9.00
2017-04-12T07:49:29.179Z,8.90
2017-04-12T07:50:29.033Z,8.90
2017-04-12T07:51:29.017Z,8.90
2017-04-12T07:52:28.806Z,9.00
2017-04-12T07:53:28.642Z,8.90
2017-04-12T07:54:28.499Z,8.90
2017-04-12T07:55:28.337Z,8.90
2017-04-12T07:56:28.240Z,8.90
2017-04-12T07:57:28.132Z,8.90
2017-04-12T07:58:27.952Z,9.00
2017-04-12T07:59:27.771Z,9.10
2017-04-12T08:00:27.571Z,9.10
2017-04-12T08:01:27.428Z,9.20
2017-04-12T08:02:27.397Z,9.30
2017-04-12T08:03:27.259Z,9.50
2017-04-12T08:04:27.137Z,9.50
2017-04-12T08:05:27.022Z,9.60
2017-04-12T08:06:26.863Z,9.50
2017-04-12T08:07:26.641Z,9.60
2017-04-12T08:08:27.233Z,9.60
2017-04-12T08:09:27.179Z,9.70
2017-04-12T08:10:27.007Z,9.60
2017-04-12T08:11:27.783Z,9.60
2017-04-12T08:12:27.657Z,9.60
2017-04-12T08:13:27.783Z,9.60
2017-04-12T08:14:27.617Z,9.70
2017-04-12T08:15:27.447Z,9.70
2017-04-12T08:16:27.288Z,9.70
2017-04-12T08:17:27.135Z,9.70
2017-04-12T08:18:26.982Z,9.70
2017-04-12T08:19:26.825Z,9.70
2017-04-12T08:20:27.448Z,9.70
2017-04-12T08:21:27.454Z,9.70
2017-04-12T08:22:27.362Z,9.70
2017-04-12T08:23:27.193Z,9.60
2017-04-12T08:24:27.126Z,9.70
2017-04-12T08:25:26.995Z,9.70
2017-04-12T08:26:26.836Z,9.70
2017-04-12T08:27:26.722Z,9.70
2017-04-12T08:28:26.501Z,9.80
2017-04-12T08:29:26.300Z,9.80
2017-04-12T08:30:26.207Z,9.80
2017-04-12T08:31:26.044Z,9.80
2017-04-12T08:32:25.881Z,9.80
2017-04-12T08:33:25.772Z,9.80
2017-04-12T08:34:25.619Z,9.80
2017-04-12T08:35:25.491Z,9.80
2017-04-12T08:36:25.406Z,9.80
2017-04-12T08:37:25.246Z,9.70
2017-04-12T08:38:25.088Z,9.60
2017-04-12T08:39:24.938Z,9.50
2017-04-12T08:40:24.742Z,9.40
2017-04-12T08:41:24.634Z,9.40
2017-04-12T08:42:24.453Z,9.50
2017-04-12T08:43:24.399Z,9.60
2017-04-12T08:44:24.538Z,9.60
2017-04-12T08:45:24.420Z,9.70
2017-04-12T08:46:24.192Z,9.70
2017-04-12T08:47:24.059Z,9.70
2017-04-12T08:48:23.923Z,9.80
2017-04-12T08:49:23.788Z,9.90
2017-04-12T08:50:23.585Z,9.90
2017-04-12T08:51:23.439Z,10.00
2017-04-12T08:52:23.396Z,10.00
2017-04-12T08:53:23.231Z,10.10
2017-04-12T08:54:23.065Z,10.10
2017-04-12T08:55:22.889Z,10.20
2017-04-12T08:56:22.665Z,10.30
2017-04-12T08:57:22.489Z,10.30
2017-04-12T08:58:22.322Z,10.30
2017-04-12T08:59:22.250Z,10.30
2017-04-12T09:00:22.195Z,10.30
2017-04-12T09:01:22.052Z,10.30
2017-04-12T09:02:21.864Z,10.30
2017-04-12T09:03:21.690Z,10.30
2017-04-12T09:04:21.610Z,10.30
2017-04-12T09:05:21.496Z,10.40
2017-04-12T09:06:21.329Z,10.50
2017-04-12T09:07:21.186Z,10.60
2017-04-12T09:08:21.079Z,10.50
2017-04-12T09:09:20.938Z,10.50
2017-04-12T09:10:20.834Z,10.40
2017-04-12T09:11:20.631Z,10.40
2017-04-12T09:12:20.847Z,10.40
2017-04-12T09:13:20.853Z,10.30
2017-04-12T09:14:20.705Z,10.30
2017-04-12T09:15:20.766Z,10.30
2017-04-12T09:16:20.606Z,10.20
2017-04-12T09:17:20.488Z,10.30
2017-04-12T09:18:20.309Z,10.30
2017-04-12T09:19:20.168Z,10.10
2017-04-12T09:20:19.962Z,10.10
2017-04-12T09:21:19.825Z,10.10
2017-04-12T09:22:19.693Z,10.10
2017-04-12T09:23:19.637Z,10.20
2017-04-12T09:24:20.227Z,10.20
2017-04-12T09:25:20.070Z,10.20
2017-04-12T09:26:20.251Z,10.10
2017-04-12T09:27:20.046Z,10.10
2017-04-12T09:28:19.929Z,10.10
2017-04-12T09:29:19.771Z,10.00
2017-04-12T09:30:19.711Z,10.10
2017-04-12T09:31:19.606Z,10.20
2017-04-12T09:32:19.520Z,10.30
2017-04-12T09:33:19.305Z,10.50
2017-04-12T09:34:20.063Z,10.60
2017-04-12T09:35:20.100Z,10.60
2017-04-12T09:36:19.962Z,10.70
2017-04-12T09:37:19.891Z,10.70
2017-04-12T09:38:19.823Z,10.80
2017-04-12T09:39:19.652Z,10.80
2017-04-12T09:40:19.458Z,10.80
2017-04-12T09:41:19.300Z,10.90
2017-04-12T09:42:19.103Z,10.90
2017-04-12T09:43:19.000Z,11.00
2017-04-12T09:44:18.973Z,11.10
2017-04-12T09:45:18.883Z,11.20
2017-04-12T09:46:18.776Z,11.10
2017-04-12T09:47:18.888Z,11.20
2017-04-12T09:48:18.779Z,11.20
2017-04-12T09:49:18.594Z,11.10
2017-04-12T09:50:18.506Z,11.00
2017-04-12T09:51:18.342Z,10.90
2017-04-12T09:52:18.149Z,11.00
2017-04-12T09:53:17.869Z,11.00
2017-04-12T09:54:17.800Z,11.00
2017-04-12T09:55:17.612Z,10.90
2017-04-12T09:56:17.400Z,10.80
2017-04-12T09:57:17.284Z,10.80
2017-04-12T09:58:17.178Z,10.80
2017-04-12T09:59:16.989Z,10.80
2017-04-12T10:00:16.844Z,10.80
2017-04-12T10:01:16.751Z,10.80
2017-04-12T10:02:16.563Z,10.80
2017-04-12T10:03:16.451Z,10.70
2017-04-12T10:04:16.321Z,10.70
2017-04-12T10:05:16.137Z,10.80
2017-04-12T10:06:15.979Z,10.90
2017-04-12T10:07:15.777Z,10.90
2017-04-12T10:08:15.675Z,10.90
2017-04-12T10:09:15.568Z,10.90
2017-04-12T10:10:15.369Z,11.00
2017-04-12T10:11:15.307Z,11.10
2017-04-12T10:12:15.847Z,11.10
2017-04-12T10:13:15.770Z,11.30
2017-04-12T10:14:15.613Z,11.30
2017-04-12T10:15:15.409Z,11.40
2017-04-12T10:16:15.783Z,11.40
2017-04-12T10:17:16.366Z,11.40
2017-04-12T10:18:16.235Z,11.50
2017-04-12T10:19:16.074Z,11.50
2017-04-12T10:20:15.880Z,11.40
2017-04-12T10:21:15.749Z,11.40
2017-04-12T10:22:15.573Z,11.40
2017-04-12T10:23:15.375Z,11.50
2017-04-12T10:24:15.168Z,11.50
2017-04-12T10:25:14.984Z,11.60
2017-04-12T10:26:14.929Z,11.60
2017-04-12T10:27:14.766Z,11.60
2017-04-12T10:28:14.555Z,11.60
2017-04-12T10:29:14.415Z,11.80
2017-04-12T10:30:14.255Z,11.90
2017-04-12T10:31:14.107Z,12.10
2017-04-12T10:32:13.975Z,12.20
2017-04-12T10:33:13.929Z,12.50
2017-04-12T10:34:13.751Z,12.70
2017-04-12T10:35:13.657Z,12.80
2017-04-12T10:36:14.213Z,12.90
2017-04-12T10:37:14.015Z,13.20
2017-04-12T10:38:14.861Z,13.50
2017-04-12T10:39:14.806Z,13.70
2017-04-12T10:40:14.821Z,14.00
2017-04-12T10:41:14.623Z,14.10
2017-04-12T10:42:14.462Z,14.10
2017-04-12T10:43:14.351Z,14.10
2017-04-12T10:44:14.194Z,14.00
2017-04-12T10:45:14.082Z,14.10
2017-04-12T10:46:14.228Z,14.30
2017-04-12T10:47:14.139Z,14.50
2017-04-12T10:48:14.097Z,14.80
2017-04-12T10:49:14.057Z,14.80
2017-04-12T10:50:13.938Z,14.80
2017-04-12T10:51:14.030Z,14.80
2017-04-12T10:52:13.955Z,14.80
2017-04-12T10:53:13.855Z,14.80
2017-04-12T10:54:13.819Z,14.80
2017-04-12T10:55:13.803Z,14.80
2017-04-12T10:56:13.766Z,14.80
2017-04-12T10:57:13.764Z,14.60
2017-04-12T10:58:13.851Z,14.50
2017-04-12T10:59:13.749Z,14.40
2017-04-12T11:00:14.247Z,14.30
2017-04-12T11:01:14.116Z,14.20
2017-04-12T11:02:14.345Z,14.10
2017-04-12T11:03:14.359Z,14.20
2017-04-12T11:04:14.286Z,14.30
2017-04-12T11:05:14.179Z,14.30
2017-04-12T11:06:14.301Z,14.20
2017-04-12T11:07:14.127Z,14.20
2017-04-12T11:08:13.911Z,14.30
2017-04-12T11:09:14.627Z,14.40
2017-04-12T11:10:14.567Z,14.40
2017-04-12T11:11:14.492Z,14.40
2017-04-12T11:12:14.390Z,14.40
2017-04-12T11:13:14.344Z,14.50
2017-04-12T11:14:14.402Z,14.40
2017-04-12T11:15:14.386Z,14.50
2017-04-12T11:16:14.706Z,14.50
2017-04-12T11:17:14.651Z,14.40
2017-04-12T11:18:15.502Z,14.40
2017-04-12T11:19:15.361Z,14.40
2017-04-12T11:20:15.405Z,14.40
2017-04-12T11:21:15.411Z,14.50
2017-04-12T11:22:15.331Z,14.40
2017-04-12T11:23:15.900Z,14.40
2017-04-12T11:24:15.745Z,14.60
2017-04-12T11:25:15.680Z,14.70
2017-04-12T11:26:15.609Z,14.80
2017-04-12T11:27:15.515Z,15.00
2017-04-12T11:28:15.363Z,15.30
2017-04-12T11:29:15.313Z,15.30
2017-04-12T11:30:15.917Z,15.20
2017-04-12T11:31:15.974Z,14.90
2017-04-12T11:32:15.972Z,14.80
2017-04-12T11:33:15.969Z,14.70
2017-04-12T11:34:15.836Z,14.60
2017-04-12T11:35:15.820Z,14.50
2017-04-12T11:36:16.953Z,14.30
2017-04-12T11:37:16.844Z,14.30
2017-04-12T11:38:16.806Z,14.20
2017-04-12T11:39:16.781Z,14.10
2017-04-12T11:40:16.687Z,14.00
2017-04-12T11:41:16.493Z,13.90
2017-04-12T11:42:16.311Z,13.80
2017-04-12T11:43:16.221Z,13.70
2017-04-12T11:44:16.124Z,13.70
2017-04-12T11:45:16.195Z,13.80
2017-04-12T11:46:16.007Z,13.70
2017-04-12T11:47:15.850Z,13.60
2017-04-12T11:48:15.706Z,13.60
2017-04-12T11:49:15.648Z,13.60
2017-04-12T11:50:15.620Z,13.50
2017-04-12T11:51:16.364Z,13.50
2017-04-12T11:52:16.233Z,13.50
2017-04-12T11:53:16.130Z,13.50
2017-04-12T11:54:16.018Z,13.40
2017-04-12T11:55:15.878Z,13.40
2017-04-12T11:56:15.800Z,13.30
2017-04-12T11:57:16.108Z,13.30
2017-04-12T11:58:15.986Z,13.30
2017-04-12T11:59:15.857Z,13.40
2017-04-12T12:00:15.832Z,13.50
2017-04-12T12:01:15.755Z,13.60
2017-04-12T12:02:15.544Z,13.70
2017-04-12T12:03:15.500Z,13.70
2017-04-12T12:04:15.318Z,13.80
2017-04-12T12:05:15.164Z,13.60
2017-04-12T12:06:15.008Z,13.50
2017-04-12T12:07:14.867Z,13.50
2017-04-12T12:08:14.742Z,13.40
2017-04-12T12:09:16.372Z,13.30
2017-04-12T12:10:16.237Z,13.30
2017-04-12T12:11:16.130Z,13.30
2017-04-12T12:12:16.011Z,13.30
2017-04-12T12:13:15.825Z,13.20
2017-04-12T12:14:16.609Z,13.20
2017-04-12T12:15:16.474Z,13.30
2017-04-12T12:16:16.305Z,13.20
2017-04-12T12:17:16.196Z,13.20
2017-04-12T12:18:16.001Z,13.10
2017-04-12T12:19:15.823Z,13.20
2017-04-12T12:20:15.737Z,13.30
2017-04-12T12:21:15.657Z,13.40
2017-04-12T12:22:15.599Z,13.50
2017-04-12T12:23:15.693Z,13.50
2017-04-12T12:24:16.774Z,13.50
2017-04-12T12:25:16.710Z,13.50
2017-04-12T12:26:16.656Z,13.50
2017-04-12T12:27:16.634Z,13.50
2017-04-12T12:28:17.464Z,13.50
2017-04-12T12:29:17.368Z,13.50
2017-04-12T12:30:17.273Z,13.50
2017-04-12T12:31:17.165Z,13.50
2017-04-12T12:32:17.136Z,13.40
2017-04-12T12:33:17.041Z,13.40
2017-04-12T12:34:17.213Z,13.50
2017-04-12T12:35:17.158Z,13.60
2017-04-12T12:36:17.214Z,13.50
2017-04-12T12:37:17.906Z,13.60
2017-04-12T12:38:17.820Z,13.80
2017-04-12T12:39:17.803Z,13.80
2017-04-12T12:40:17.728Z,13.90
2017-04-12T12:41:17.590Z,14.00
2017-04-12T12:42:17.721Z,14.20
2017-04-12T12:43:17.708Z,14.40
2017-04-12T12:44:19.458Z,14.60
2017-04-12T12:45:19.539Z,14.80
2017-04-12T12:46:19.465Z,14.80
2017-04-12T12:47:19.405Z,15.00
2017-04-12T12:48:19.540Z,15.00
2017-04-12T12:49:20.115Z,15.00
2017-04-12T12:50:20.022Z,15.00
2017-04-12T12:51:20.042Z,15.10
2017-04-12T12:52:20.777Z,15.00
2017-04-12T12:53:21.895Z,15.00
2017-04-12T12:54:21.824Z,15.00
2017-04-12T12:55:21.827Z,15.00
2017-04-12T12:56:21.950Z,15.00
2017-04-12T12:57:21.976Z,15.00
2017-04-12T12:58:21.856Z,15.10
2017-04-12T12:59:22.503Z,15.10
2017-04-12T13:00:23.298Z,15.10
2017-04-12T13:01:23.259Z,15.00
2017-04-12T13:02:23.379Z,15.00
2017-04-12T13:03:23.241Z,14.90
2017-04-12T13:04:23.269Z,15.00
2017-04-12T13:05:23.279Z,14.90
2017-04-12T13:06:24.849Z,14.80
2017-04-12T13:07:25.070Z,14.90
2017-04-12T13:08:24.900Z,14.90
2017-04-12T13:09:24.869Z,14.90
2017-04-12T13:10:24.893Z,14.90
2017-04-12T13:11:24.826Z,15.10
2017-04-12T13:12:25.278Z,15.30
2017-04-12T13:13:25.681Z,15.40
2017-04-12T13:14:25.799Z,15.50